sensor_id;sensor_type;location;lat;lon;timestamp;pressure;altitude;pressure_sealevel;temperature;humidity
6680;BME280;3376;42.664;23.346;2023-05-02T00:01:39;94872.88;;;13.79;82.97
6680;BME280;3376;42.664;23.346;2023-05-02T00:04:06;94858.00;;;13.73;83.38
6680;BME280;3376;42.664;23.346;2023-05-02T00:06:33;94870.66;;;13.76;83.22
6680;BME280;3376;42.664;23.346;2023-05-02T00:09:02;94864.63;;;13.75;83.32
6680;BME280;3376;42.664;23.346;2023-05-02T00:11:29;94865.81;;;13.73;83.45
6680;BME280;3376;42.664;23.346;2023-05-02T00:13:55;94862.84;;;13.76;83.08
6680;BME280;3376;42.664;23.346;2023-05-02T00:16:22;94861.78;;;13.70;83.15
6680;BME280;3376;42.664;23.346;2023-05-02T00:18:49;94869.34;;;13.65;83.56
6680;BME280;3376;42.664;23.346;2023-05-02T00:21:15;94864.44;;;13.56;84.51
6680;BME280;3376;42.664;23.346;2023-05-02T00:23:42;94865.25;;;13.56;84.67
6680;BME280;3376;42.664;23.346;2023-05-02T00:26:10;94877.19;;;13.51;85.23
6680;BME280;3376;42.664;23.346;2023-05-02T00:28:37;94879.72;;;13.44;85.32
6680;BME280;3376;42.664;23.346;2023-05-02T00:31:04;94865.78;;;13.31;86.75
6680;BME280;3376;42.664;23.346;2023-05-02T00:33:31;94848.41;;;13.17;87.01
6680;BME280;3376;42.664;23.346;2023-05-02T00:35:58;94874.84;;;13.20;87.84
6680;BME280;3376;42.664;23.346;2023-05-02T00:38:24;94884.47;;;13.20;88.14
6680;BME280;3376;42.664;23.346;2023-05-02T00:40:51;94894.88;;;13.20;88.42
6680;BME280;3376;42.664;23.346;2023-05-02T00:43:19;94897.28;;;13.07;89.34
6680;BME280;3376;42.664;23.346;2023-05-02T00:45:47;94903.72;;;12.96;90.46
6680;BME280;3376;42.664;23.346;2023-05-02T00:48:13;94886.06;;;12.91;90.55
6680;BME280;3376;42.664;23.346;2023-05-02T00:50:42;94897.75;;;12.95;90.78
6680;BME280;3376;42.664;23.346;2023-05-02T00:53:09;94889.41;;;12.85;91.51
6680;BME280;3376;42.664;23.346;2023-05-02T00:55:36;94895.59;;;12.99;91.39
6680;BME280;3376;42.664;23.346;2023-05-02T00:58:05;94888.94;;;12.96;91.18
6680;BME280;3376;42.664;23.346;2023-05-02T01:00:50;94891.84;;;13.02;91.36
6680;BME280;3376;42.664;23.346;2023-05-02T01:03:29;94894.25;;;13.03;91.73
6680;BME280;3376;42.664;23.346;2023-05-02T01:06:04;94895.88;;;13.04;92.62
6680;BME280;3376;42.664;23.346;2023-05-02T01:08:39;94894.31;;;13.10;91.86
6680;BME280;3376;42.664;23.346;2023-05-02T01:11:14;94885.44;;;13.19;91.86
6680;BME280;3376;42.664;23.346;2023-05-02T01:13:42;94876.03;;;13.18;91.22
6680;BME280;3376;42.664;23.346;2023-05-02T01:16:13;94888.56;;;13.29;90.38
6680;BME280;3376;42.664;23.346;2023-05-02T01:18:43;94893.75;;;13.29;91.82
6680;BME280;3376;42.664;23.346;2023-05-02T01:21:11;94886.25;;;13.19;91.70
6680;BME280;3376;42.664;23.346;2023-05-02T01:23:51;94881.50;;;13.23;91.67
6680;BME280;3376;42.664;23.346;2023-05-02T01:26:25;94882.91;;;13.25;93.13
6680;BME280;3376;42.664;23.346;2023-05-02T01:28:57;94882.84;;;13.19;92.92
6680;BME280;3376;42.664;23.346;2023-05-02T01:31:26;94876.03;;;13.18;92.74
6680;BME280;3376;42.664;23.346;2023-05-02T01:33:55;94879.25;;;13.20;94.46
6680;BME280;3376;42.664;23.346;2023-05-02T01:36:24;94886.50;;;13.24;93.79
6680;BME280;3376;42.664;23.346;2023-05-02T01:38:53;94854.88;;;13.06;92.51
6680;BME280;3376;42.664;23.346;2023-05-02T01:41:21;94894.88;;;13.20;92.24
6680;BME280;3376;42.664;23.346;2023-05-02T01:43:50;94887.66;;;13.22;91.75
6680;BME280;3376;42.664;23.346;2023-05-02T01:46:21;94872.19;;;12.99;93.18
6680;BME280;3376;42.664;23.346;2023-05-02T01:48:47;94894.31;;;13.10;92.77
6680;BME280;3376;42.664;23.346;2023-05-02T01:51:17;94892.81;;;13.00;92.91
6680;BME280;3376;42.664;23.346;2023-05-02T01:53:47;94869.47;;;12.92;92.91
6680;BME280;3376;42.664;23.346;2023-05-02T01:56:16;94900.22;;;12.89;94.60
6680;BME280;3376;42.664;23.346;2023-05-02T01:58:45;94903.00;;;12.87;94.73
6680;BME280;3376;42.664;23.346;2023-05-02T02:01:13;94890.31;;;12.78;95.60
6680;BME280;3376;42.664;23.346;2023-05-02T02:03:42;94885.00;;;12.71;97.90
6680;BME280;3376;42.664;23.346;2023-05-02T02:06:11;94863.84;;;12.74;96.53
6680;BME280;3376;42.664;23.346;2023-05-02T02:08:39;94884.22;;;12.85;96.10
6680;BME280;3376;42.664;23.346;2023-05-02T02:11:08;94887.50;;;12.79;95.74
6680;BME280;3376;42.664;23.346;2023-05-02T02:13:43;94879.56;;;12.66;96.09
6680;BME280;3376;42.664;23.346;2023-05-02T02:16:18;94875.06;;;12.46;97.45
6680;BME280;3376;42.664;23.346;2023-05-02T02:18:49;94888.09;;;12.38;98.76
6680;BME280;3376;42.664;23.346;2023-05-02T02:21:17;94880.75;;;12.27;99.62
6680;BME280;3376;42.664;23.346;2023-05-02T02:23:46;94894.38;;;12.29;99.50
6680;BME280;3376;42.664;23.346;2023-05-02T02:26:16;94889.34;;;12.27;100.00
6680;BME280;3376;42.664;23.346;2023-05-02T02:28:44;94883.63;;;12.32;100.00
6680;BME280;3376;42.664;23.346;2023-05-02T02:31:11;94882.28;;;12.21;100.00
6680;BME280;3376;42.664;23.346;2023-05-02T02:33:38;94888.34;;;12.14;100.00
6680;BME280;3376;42.664;23.346;2023-05-02T02:36:11;94893.69;;;12.12;100.00
6680;BME280;3376;42.664;23.346;2023-05-02T02:38:44;94890.72;;;12.01;100.00
6680;BME280;3376;42.664;23.346;2023-05-02T02:41:15;94838.44;;;11.66;100.00
6680;BME280;3376;42.664;23.346;2023-05-02T02:43:51;94898.06;;;11.97;100.00
6680;BME280;3376;42.664;23.346;2023-05-02T02:46:28;94888.38;;;11.91;100.00
6680;BME280;3376;42.664;23.346;2023-05-02T02:49:08;94895.88;;;11.86;100.00
6680;BME280;3376;42.664;23.346;2023-05-02T02:51:51;94888.44;;;11.83;100.00
6680;BME280;3376;42.664;23.346;2023-05-02T02:54:23;94893.28;;;11.86;100.00
6680;BME280;3376;42.664;23.346;2023-05-02T02:56:58;94906.28;;;11.86;100.00
6680;BME280;3376;42.664;23.346;2023-05-02T02:59:29;94908.56;;;11.81;100.00
6680;BME280;3376;42.664;23.346;2023-05-02T03:02:07;94905.91;;;11.89;100.00
6680;BME280;3376;42.664;23.346;2023-05-02T03:04:37;94909.00;;;11.84;100.00
6680;BME280;3376;42.664;23.346;2023-05-02T03:07:05;94896.91;;;11.77;100.00
6680;BME280;3376;42.664;23.346;2023-05-02T03:09:50;94916.31;;;11.89;100.00
6680;BME280;3376;42.664;23.346;2023-05-02T03:12:17;94905.91;;;11.89;100.00
6680;BME280;3376;42.664;23.346;2023-05-02T03:14:43;94921.97;;;11.93;100.00
6680;BME280;3376;42.664;23.346;2023-05-02T03:17:10;94913.34;;;11.92;100.00
6680;BME280;3376;42.664;23.346;2023-05-02T03:19:37;94932.16;;;11.94;100.00
6680;BME280;3376;42.664;23.346;2023-05-02T03:22:05;94920.59;;;11.97;100.00
6680;BME280;3376;42.664;23.346;2023-05-02T03:24:32;94927.38;;;12.06;100.00
6680;BME280;3376;42.664;23.346;2023-05-02T03:26:59;94936.88;;;12.13;100.00
6680;BME280;3376;42.664;23.346;2023-05-02T03:29:25;94926.50;;;12.13;100.00
6680;BME280;3376;42.664;23.346;2023-05-02T03:31:53;94934.56;;;12.18;100.00
6680;BME280;3376;42.664;23.346;2023-05-02T03:34:19;94929.03;;;12.21;100.00
6680;BME280;3376;42.664;23.346;2023-05-02T03:36:47;94936.09;;;12.27;100.00
6680;BME280;3376;42.664;23.346;2023-05-02T03:39:15;94932.25;;;12.23;100.00
6680;BME280;3376;42.664;23.346;2023-05-02T03:41:42;94922.72;;;12.16;100.00
6680;BME280;3376;42.664;23.346;2023-05-02T03:44:09;94926.59;;;12.20;100.00
6680;BME280;3376;42.664;23.346;2023-05-02T03:46:36;94933.84;;;12.24;100.00
6680;BME280;3376;42.664;23.346;2023-05-02T03:49:02;94910.84;;;12.21;100.00
6680;BME280;3376;42.664;23.346;2023-05-02T03:51:29;94932.81;;;12.33;99.66
6680;BME280;3376;42.664;23.346;2023-05-02T03:53:56;94940.47;;;12.49;99.31
6680;BME280;3376;42.664;23.346;2023-05-02T03:56:24;94944.31;;;12.53;99.56
6680;BME280;3376;42.664;23.346;2023-05-02T03:58:51;94923.81;;;12.58;98.19
6680;BME280;3376;42.664;23.346;2023-05-02T04:01:18;94924.19;;;12.70;97.82
6680;BME280;3376;42.664;23.346;2023-05-02T04:03:45;94938.38;;;12.82;97.27
6680;BME280;3376;42.664;23.346;2023-05-02T04:06:11;94953.22;;;12.88;96.67
6680;BME280;3376;42.664;23.346;2023-05-02T04:08:38;94945.25;;;12.89;95.70
6680;BME280;3376;42.664;23.346;2023-05-02T04:11:05;94931.56;;;12.95;95.80
6680;BME280;3376;42.664;23.346;2023-05-02T04:13:33;94937.56;;;13.11;94.65
6680;BME280;3376;42.664;23.346;2023-05-02T04:16:00;94937.72;;;13.24;92.94
6680;BME280;3376;42.664;23.346;2023-05-02T04:18:27;94941.94;;;13.39;92.74
6680;BME280;3376;42.664;23.346;2023-05-02T04:20:54;94923.28;;;13.36;91.91
6680;BME280;3376;42.664;23.346;2023-05-02T04:23:20;94859.34;;;12.97;92.20
6680;BME280;3376;42.664;23.346;2023-05-02T04:25:51;94934.63;;;13.49;90.16
6680;BME280;3376;42.664;23.346;2023-05-02T04:28:19;94940.63;;;13.64;89.52
6680;BME280;3376;42.664;23.346;2023-05-02T04:30:47;94942.06;;;13.67;88.94
6680;BME280;3376;42.664;23.346;2023-05-02T04:33:14;94924.72;;;13.74;89.49
6680;BME280;3376;42.664;23.346;2023-05-02T04:35:41;94944.88;;;13.86;87.75
6680;BME280;3376;42.664;23.346;2023-05-02T04:38:08;94946.72;;;13.92;85.91
6680;BME280;3376;42.664;23.346;2023-05-02T04:40:35;94940.09;;;13.90;85.45
6680;BME280;3376;42.664;23.346;2023-05-02T04:43:01;94958.44;;;13.82;84.74
6680;BME280;3376;42.664;23.346;2023-05-02T04:45:28;94947.13;;;13.75;84.40
6680;BME280;3376;42.664;23.346;2023-05-02T04:47:56;94944.16;;;13.57;85.24
6680;BME280;3376;42.664;23.346;2023-05-02T04:50:23;94933.50;;;13.37;85.71
6680;BME280;3376;42.664;23.346;2023-05-02T04:52:50;94948.78;;;13.26;85.94
6680;BME280;3376;42.664;23.346;2023-05-02T04:55:18;94943.22;;;13.14;86.36
6680;BME280;3376;42.664;23.346;2023-05-02T04:57:44;94944.00;;;13.29;85.69
6680;BME280;3376;42.664;23.346;2023-05-02T05:00:12;94949.25;;;13.15;86.13
6680;BME280;3376;42.664;23.346;2023-05-02T05:02:39;94947.88;;;13.19;86.11
6680;BME280;3376;42.664;23.346;2023-05-02T05:05:07;94957.13;;;13.07;86.22
6680;BME280;3376;42.664;23.346;2023-05-02T05:07:34;94868.78;;;12.40;86.69
6680;BME280;3376;42.664;23.346;2023-05-02T05:10:01;94956.19;;;12.99;85.89
6680;BME280;3376;42.664;23.346;2023-05-02T05:12:28;94947.69;;;13.20;86.62
6680;BME280;3376;42.664;23.346;2023-05-02T05:14:54;94951.63;;;13.31;84.82
6680;BME280;3376;42.664;23.346;2023-05-02T05:17:21;94947.16;;;13.25;85.03
6680;BME280;3376;42.664;23.346;2023-05-02T05:19:48;94949.22;;;13.44;86.08
6680;BME280;3376;42.664;23.346;2023-05-02T05:22:16;94961.75;;;13.55;83.46
6680;BME280;3376;42.664;23.346;2023-05-02T05:24:50;94953.94;;;13.55;82.38
6680;BME280;3376;42.664;23.346;2023-05-02T05:27:17;94963.63;;;13.61;82.65
6680;BME280;3376;42.664;23.346;2023-05-02T05:29:43;94950.31;;;13.70;82.62
6680;BME280;3376;42.664;23.346;2023-05-02T05:32:10;94969.47;;;13.84;81.92
6680;BME280;3376;42.664;23.346;2023-05-02T05:34:37;94971.25;;;13.98;79.00
6680;BME280;3376;42.664;23.346;2023-05-02T05:37:04;94974.03;;;13.96;78.64
6680;BME280;3376;42.664;23.346;2023-05-02T05:39:32;94969.56;;;14.11;80.10
6680;BME280;3376;42.664;23.346;2023-05-02T05:41:59;94966.41;;;14.16;78.76
6680;BME280;3376;42.664;23.346;2023-05-02T05:44:25;94967.88;;;14.40;78.28
6680;BME280;3376;42.664;23.346;2023-05-02T05:46:52;94975.97;;;14.51;74.68
6680;BME280;3376;42.664;23.346;2023-05-02T05:49:19;94983.78;;;14.72;76.46
6680;BME280;3376;42.664;23.346;2023-05-02T05:51:46;94983.06;;;14.85;73.86
6680;BME280;3376;42.664;23.346;2023-05-02T05:54:13;94979.78;;;14.76;75.02
6680;BME280;3376;42.664;23.346;2023-05-02T05:56:41;94983.81;;;14.79;73.55
6680;BME280;3376;42.664;23.346;2023-05-02T05:59:07;94983.59;;;15.01;73.13
6680;BME280;3376;42.664;23.346;2023-05-02T06:01:34;94995.34;;;15.18;71.46
6680;BME280;3376;42.664;23.346;2023-05-02T06:04:01;94967.63;;;14.62;72.48
6680;BME280;3376;42.664;23.346;2023-05-02T06:06:29;95006.00;;;14.68;72.55
6680;BME280;3376;42.664;23.346;2023-05-02T06:08:56;95000.06;;;14.53;73.48
6680;BME280;3376;42.664;23.346;2023-05-02T06:11:23;94979.91;;;14.41;72.78
6680;BME280;3376;42.664;23.346;2023-05-02T06:13:52;94995.72;;;14.60;72.51
6680;BME280;3376;42.664;23.346;2023-05-02T06:16:19;94986.63;;;14.77;72.43
6680;BME280;3376;42.664;23.346;2023-05-02T06:18:46;94968.97;;;14.79;71.38
6680;BME280;3376;42.664;23.346;2023-05-02T06:21:13;94986.03;;;15.09;71.69
6680;BME280;3376;42.664;23.346;2023-05-02T06:23:39;94989.72;;;15.21;69.12
6680;BME280;3376;42.664;23.346;2023-05-02T06:26:06;94987.75;;;15.30;67.82
6680;BME280;3376;42.664;23.346;2023-05-02T06:28:34;94992.69;;;15.46;69.15
6680;BME280;3376;42.664;23.346;2023-05-02T06:31:04;94995.38;;;15.59;66.13
6680;BME280;3376;42.664;23.346;2023-05-02T06:33:32;94972.81;;;15.52;66.31
6680;BME280;3376;42.664;23.346;2023-05-02T06:35:59;94987.78;;;15.71;66.37
6680;BME280;3376;42.664;23.346;2023-05-02T06:38:25;94994.06;;;15.83;65.16
6680;BME280;3376;42.664;23.346;2023-05-02T06:40:52;94988.44;;;15.92;65.99
6680;BME280;3376;42.664;23.346;2023-05-02T06:43:19;94981.91;;;16.16;64.98
6680;BME280;3376;42.664;23.346;2023-05-02T06:45:46;94895.59;;;15.83;62.49
6680;BME280;3376;42.664;23.346;2023-05-02T06:48:14;94988.41;;;16.46;60.60
6680;BME280;3376;42.664;23.346;2023-05-02T06:50:41;94978.72;;;16.40;61.07
6680;BME280;3376;42.664;23.346;2023-05-02T06:53:07;94984.59;;;16.62;60.31
6680;BME280;3376;42.664;23.346;2023-05-02T06:55:34;94969.69;;;16.82;61.47
6680;BME280;3376;42.664;23.346;2023-05-02T06:58:01;94974.69;;;17.09;61.55
6680;BME280;3376;42.664;23.346;2023-05-02T07:00:28;94985.34;;;17.27;58.66
6680;BME280;3376;42.664;23.346;2023-05-02T07:02:55;94983.31;;;17.36;56.90
6680;BME280;3376;42.664;23.346;2023-05-02T07:05:23;94960.72;;;17.41;56.84
6680;BME280;3376;42.664;23.346;2023-05-02T07:07:49;94962.69;;;17.59;56.29
6680;BME280;3376;42.664;23.346;2023-05-02T07:10:16;94976.84;;;17.51;54.36
6680;BME280;3376;42.664;23.346;2023-05-02T07:12:43;94974.00;;;17.40;54.72
6680;BME280;3376;42.664;23.346;2023-05-02T07:15:10;94982.31;;;17.30;54.42
6680;BME280;3376;42.664;23.346;2023-05-02T07:17:38;94973.69;;;17.04;55.30
6680;BME280;3376;42.664;23.346;2023-05-02T07:20:06;94993.03;;;16.96;55.69
6680;BME280;3376;42.664;23.346;2023-05-02T07:22:34;94979.38;;;16.81;56.00
6680;BME280;3376;42.664;23.346;2023-05-02T07:25:01;94976.53;;;16.83;55.34
6680;BME280;3376;42.664;23.346;2023-05-02T07:27:28;94978.91;;;17.04;54.66
6680;BME280;3376;42.664;23.346;2023-05-02T07:29:55;94970.84;;;17.25;54.67
6680;BME280;3376;42.664;23.346;2023-05-02T07:32:22;94981.31;;;17.18;54.46
6680;BME280;3376;42.664;23.346;2023-05-02T07:34:51;94972.38;;;17.45;54.91
6680;BME280;3376;42.664;23.346;2023-05-02T07:37:19;94948.53;;;17.73;53.14
6680;BME280;3376;42.664;23.346;2023-05-02T07:39:47;94964.44;;;18.16;51.88
6680;BME280;3376;42.664;23.346;2023-05-02T07:42:14;94976.91;;;18.27;50.23
6680;BME280;3376;42.664;23.346;2023-05-02T07:44:40;94978.44;;;18.41;49.82
6680;BME280;3376;42.664;23.346;2023-05-02T07:47:07;94981.56;;;18.25;50.38
6680;BME280;3376;42.664;23.346;2023-05-02T07:49:34;94949.00;;;18.32;51.38
6680;BME280;3376;42.664;23.346;2023-05-02T07:52:03;94974.25;;;18.64;50.08
6680;BME280;3376;42.664;23.346;2023-05-02T07:54:29;94977.28;;;18.86;48.36
6680;BME280;3376;42.664;23.346;2023-05-02T07:56:58;94980.88;;;19.16;47.84
6680;BME280;3376;42.664;23.346;2023-05-02T07:59:28;94966.34;;;19.38;47.64
6680;BME280;3376;42.664;23.346;2023-05-02T08:01:55;94969.25;;;19.66;46.68
6680;BME280;3376;42.664;23.346;2023-05-02T08:04:21;94976.22;;;19.90;46.34
6680;BME280;3376;42.664;23.346;2023-05-02T08:06:48;94976.56;;;20.12;45.26
6680;BME280;3376;42.664;23.346;2023-05-02T08:09:15;94974.28;;;20.34;44.84
6680;BME280;3376;42.664;23.346;2023-05-02T08:11:41;94975.66;;;20.36;44.65
6680;BME280;3376;42.664;23.346;2023-05-02T08:14:09;94991.16;;;20.56;43.17
6680;BME280;3376;42.664;23.346;2023-05-02T08:16:36;94957.31;;;19.82;45.01
6680;BME280;3376;42.664;23.346;2023-05-02T08:19:03;94973.13;;;20.12;45.42
6680;BME280;3376;42.664;23.346;2023-05-02T08:21:29;94968.47;;;20.14;44.60
6680;BME280;3376;42.664;23.346;2023-05-02T08:23:57;94964.50;;;20.23;44.13
6680;BME280;3376;42.664;23.346;2023-05-02T08:26:24;94947.59;;;20.30;43.41
6680;BME280;3376;42.664;23.346;2023-05-02T08:28:51;94966.81;;;20.72;44.51
6680;BME280;3376;42.664;23.346;2023-05-02T08:31:19;94942.66;;;20.75;43.25
6680;BME280;3376;42.664;23.346;2023-05-02T08:36:14;94967.53;;;21.48;40.65
6680;BME280;3376;42.664;23.346;2023-05-02T08:38:42;94970.38;;;21.58;40.06
6680;BME280;3376;42.664;23.346;2023-05-02T08:41:09;94964.53;;;21.79;39.65
6680;BME280;3376;42.664;23.346;2023-05-02T08:43:38;94961.47;;;21.59;39.41
6680;BME280;3376;42.664;23.346;2023-05-02T08:46:05;94957.88;;;21.65;40.33
6680;BME280;3376;42.664;23.346;2023-05-02T08:48:36;94933.94;;;21.78;39.86
6680;BME280;3376;42.664;23.346;2023-05-02T08:51:05;94969.31;;;22.22;38.21
6680;BME280;3376;42.664;23.346;2023-05-02T08:53:34;94951.84;;;22.49;38.18
6680;BME280;3376;42.664;23.346;2023-05-02T08:56:01;94957.63;;;22.18;37.85
6680;BME280;3376;42.664;23.346;2023-05-02T08:58:28;94952.66;;;22.22;38.13
6680;BME280;3376;42.664;23.346;2023-05-02T09:00:59;94924.28;;;22.12;38.21
6680;BME280;3376;42.664;23.346;2023-05-02T09:03:28;94951.31;;;22.19;38.12
6680;BME280;3376;42.664;23.346;2023-05-02T09:06:04;94954.94;;;22.30;36.80
6680;BME280;3376;42.664;23.346;2023-05-02T09:08:31;94942.75;;;22.40;37.74
6680;BME280;3376;42.664;23.346;2023-05-02T09:10:58;94946.13;;;22.24;37.76
6680;BME280;3376;42.664;23.346;2023-05-02T09:13:32;94923.00;;;22.14;38.13
6680;BME280;3376;42.664;23.346;2023-05-02T09:16:00;94942.56;;;22.47;37.31
6680;BME280;3376;42.664;23.346;2023-05-02T09:18:29;94961.84;;;22.59;36.45
6680;BME280;3376;42.664;23.346;2023-05-02T09:20:59;94932.59;;;22.49;36.51
6680;BME280;3376;42.664;23.346;2023-05-02T09:23:37;94932.88;;;22.64;36.45
6680;BME280;3376;42.664;23.346;2023-05-02T09:26:18;94927.91;;;22.67;35.70
6680;BME280;3376;42.664;23.346;2023-05-02T09:28:47;94948.31;;;23.05;35.24
6680;BME280;3376;42.664;23.346;2023-05-02T09:31:14;94942.94;;;23.00;35.18
6680;BME280;3376;42.664;23.346;2023-05-02T09:33:42;94943.91;;;23.10;34.90
6680;BME280;3376;42.664;23.346;2023-05-02T09:36:12;94931.06;;;23.19;35.07
6680;BME280;3376;42.664;23.346;2023-05-02T09:38:40;94946.53;;;23.27;34.25
6680;BME280;3376;42.664;23.346;2023-05-02T09:41:07;94935.47;;;23.30;33.75
6680;BME280;3376;42.664;23.346;2023-05-02T09:43:34;94933.09;;;23.50;33.65
6680;BME280;3376;42.664;23.346;2023-05-02T09:46:02;94927.09;;;23.55;33.68
6680;BME280;3376;42.664;23.346;2023-05-02T09:48:30;94930.38;;;23.45;34.13
6680;BME280;3376;42.664;23.346;2023-05-02T09:50:57;94912.09;;;23.60;33.69
6680;BME280;3376;42.664;23.346;2023-05-02T09:53:27;94919.69;;;23.78;32.51
6680;BME280;3376;42.664;23.346;2023-05-02T09:56:01;94918.66;;;23.79;32.62
6680;BME280;3376;42.664;23.346;2023-05-02T09:58:28;94905.81;;;23.66;32.33
6680;BME280;3376;42.664;23.346;2023-05-02T10:00:56;94927.28;;;23.70;32.61
6680;BME280;3376;42.664;23.346;2023-05-02T10:03:25;94822.84;;;23.12;32.81
6680;BME280;3376;42.664;23.346;2023-05-02T10:05:52;94907.38;;;23.67;32.33
6680;BME280;3376;42.664;23.346;2023-05-02T10:08:19;94890.47;;;23.68;32.66
6680;BME280;3376;42.664;23.346;2023-05-02T10:10:51;94891.72;;;23.82;32.69
6680;BME280;3376;42.664;23.346;2023-05-02T10:13:19;94888.78;;;24.05;31.58
6680;BME280;3376;42.664;23.346;2023-05-02T10:15:50;94902.09;;;24.37;31.61
6680;BME280;3376;42.664;23.346;2023-05-02T10:18:22;94880.34;;;24.08;32.03
6680;BME280;3376;42.664;23.346;2023-05-02T10:20:55;94907.00;;;24.23;31.24
6680;BME280;3376;42.664;23.346;2023-05-02T10:23:25;94915.38;;;24.42;30.48
6680;BME280;3376;42.664;23.346;2023-05-02T10:25:54;94898.44;;;24.70;30.12
6680;BME280;3376;42.664;23.346;2023-05-02T10:28:21;94900.72;;;24.34;30.57
6680;BME280;3376;42.664;23.346;2023-05-02T10:30:49;94888.59;;;24.38;30.69
6680;BME280;3376;42.664;23.346;2023-05-02T10:33:19;94888.25;;;24.62;30.43
6680;BME280;3376;42.664;23.346;2023-05-02T10:35:46;94840.84;;;24.65;30.58
6680;BME280;3376;42.664;23.346;2023-05-02T10:38:15;94884.94;;;25.13;29.95
6680;BME280;3376;42.664;23.346;2023-05-02T10:40:48;94892.22;;;24.91;30.29
6680;BME280;3376;42.664;23.346;2023-05-02T10:43:23;94901.16;;;24.53;29.55
6680;BME280;3376;42.664;23.346;2023-05-02T10:45:51;94884.31;;;24.06;30.29
6680;BME280;3376;42.664;23.346;2023-05-02T10:48:19;94889.47;;;23.96;30.79
6680;BME280;3376;42.664;23.346;2023-05-02T10:50:48;94876.28;;;23.14;30.87
6680;BME280;3376;42.664;23.346;2023-05-02T10:53:29;94876.09;;;23.38;31.49
6680;BME280;3376;42.664;23.346;2023-05-02T10:56:15;94877.06;;;23.75;31.49
6680;BME280;3376;42.664;23.346;2023-05-02T10:58:44;94878.59;;;23.92;31.41
6680;BME280;3376;42.664;23.346;2023-05-02T11:01:34;94862.59;;;23.82;30.94
6680;BME280;3376;42.664;23.346;2023-05-02T11:04:03;94872.13;;;23.83;31.17
6680;BME280;3376;42.664;23.346;2023-05-02T11:06:32;94879.41;;;23.11;31.87
6680;BME280;3376;42.664;23.346;2023-05-02T11:09:30;94873.84;;;22.91;33.68
6680;BME280;3376;42.664;23.346;2023-05-02T11:11:57;94870.88;;;22.88;35.00
6680;BME280;3376;42.664;23.346;2023-05-02T11:14:44;94857.78;;;22.60;34.03
6680;BME280;3376;42.664;23.346;2023-05-02T11:17:12;94862.78;;;22.94;33.99
6680;BME280;3376;42.664;23.346;2023-05-02T11:22:51;94837.19;;;23.16;33.12
6680;BME280;3376;42.664;23.346;2023-05-02T11:25:31;94858.66;;;23.42;33.06
6680;BME280;3376;42.664;23.346;2023-05-02T11:27:58;94862.25;;;23.52;33.47
6680;BME280;3376;42.664;23.346;2023-05-02T11:30:43;94871.28;;;23.56;33.89
6680;BME280;3376;42.664;23.346;2023-05-02T11:33:18;94857.56;;;23.81;36.78
6680;BME280;3376;42.664;23.346;2023-05-02T11:35:47;94849.97;;;23.89;32.90
6680;BME280;3376;42.664;23.346;2023-05-02T11:38:15;94851.72;;;23.79;33.22
6680;BME280;3376;42.664;23.346;2023-05-02T11:40:53;94844.19;;;23.71;32.81
6680;BME280;3376;42.664;23.346;2023-05-02T11:43:20;94848.19;;;23.73;34.46
6680;BME280;3376;42.664;23.346;2023-05-02T11:45:49;94826.63;;;23.60;32.92
6680;BME280;3376;42.664;23.346;2023-05-02T11:48:18;94823.44;;;23.58;34.10
6680;BME280;3376;42.664;23.346;2023-05-02T11:50:46;94838.22;;;23.80;35.16
6680;BME280;3376;42.664;23.346;2023-05-02T11:53:14;94847.19;;;23.79;33.27
6680;BME280;3376;42.664;23.346;2023-05-02T11:55:46;94840.81;;;23.75;33.79
6680;BME280;3376;42.664;23.346;2023-05-02T11:58:14;94834.09;;;23.89;34.12
6680;BME280;3376;42.664;23.346;2023-05-02T12:00:43;94828.50;;;23.86;33.23
6680;BME280;3376;42.664;23.346;2023-05-02T12:03:26;94825.81;;;23.59;32.71
6680;BME280;3376;42.664;23.346;2023-05-02T12:05:53;94809.28;;;23.47;32.87
6680;BME280;3376;42.664;23.346;2023-05-02T12:08:21;94808.41;;;23.63;33.73
6680;BME280;3376;42.664;23.346;2023-05-02T12:10:49;94811.22;;;23.78;33.82
6680;BME280;3376;42.664;23.346;2023-05-02T12:13:17;94815.44;;;23.79;32.81
6680;BME280;3376;42.664;23.346;2023-05-02T12:15:44;94810.28;;;23.89;33.05
6680;BME280;3376;42.664;23.346;2023-05-02T12:18:12;94810.84;;;23.96;34.18
6680;BME280;3376;42.664;23.346;2023-05-02T12:20:41;94794.81;;;23.81;32.23
6680;BME280;3376;42.664;23.346;2023-05-02T12:23:08;94800.38;;;23.80;33.13
6680;BME280;3376;42.664;23.346;2023-05-02T12:25:38;94811.75;;;23.80;32.71
6680;BME280;3376;42.664;23.346;2023-05-02T12:28:05;94809.38;;;23.79;32.89
6680;BME280;3376;42.664;23.346;2023-05-02T12:30:33;94795.13;;;23.85;32.11
6680;BME280;3376;42.664;23.346;2023-05-02T12:33:03;94784.25;;;23.81;31.31
6680;BME280;3376;42.664;23.346;2023-05-02T12:35:31;94785.63;;;23.62;32.48
6680;BME280;3376;42.664;23.346;2023-05-02T12:38:11;94776.22;;;23.45;31.45
6680;BME280;3376;42.664;23.346;2023-05-02T12:40:38;94785.94;;;23.39;32.16
6680;BME280;3376;42.664;23.346;2023-05-02T12:43:05;94758.44;;;23.40;31.93
6680;BME280;3376;42.664;23.346;2023-05-02T12:45:35;94772.56;;;23.77;32.54
6680;BME280;3376;42.664;23.346;2023-05-02T12:48:16;94764.19;;;23.85;30.80
6680;BME280;3376;42.664;23.346;2023-05-02T12:50:43;94738.25;;;23.87;30.92
6680;BME280;3376;42.664;23.346;2023-05-02T12:53:11;94762.13;;;23.92;30.60
6680;BME280;3376;42.664;23.346;2023-05-02T12:55:38;94764.72;;;23.87;31.18
6680;BME280;3376;42.664;23.346;2023-05-02T12:58:06;94746.00;;;23.67;30.77
6680;BME280;3376;42.664;23.346;2023-05-02T13:00:35;94764.19;;;23.85;31.18
6680;BME280;3376;42.664;23.346;2023-05-02T13:03:02;94764.59;;;23.72;31.37
6680;BME280;3376;42.664;23.346;2023-05-02T13:05:29;94761.56;;;23.64;30.67
6680;BME280;3376;42.664;23.346;2023-05-02T13:07:56;94768.94;;;23.35;30.55
6680;BME280;3376;42.664;23.346;2023-05-02T13:10:25;94762.34;;;23.16;30.86
6680;BME280;3376;42.664;23.346;2023-05-02T13:12:52;94767.28;;;22.86;30.92
6680;BME280;3376;42.664;23.346;2023-05-02T13:15:19;94753.13;;;22.75;31.17
6680;BME280;3376;42.664;23.346;2023-05-02T13:17:45;94772.94;;;22.56;31.82
6680;BME280;3376;42.664;23.346;2023-05-02T13:20:12;94770.88;;;22.42;31.93
6680;BME280;3376;42.664;23.346;2023-05-02T13:22:39;94760.94;;;22.32;31.70
6680;BME280;3376;42.664;23.346;2023-05-02T13:25:07;94773.97;;;22.39;32.10